Narowal Weather



Narowal's Current Weather

Temprature 25o mist

mist

Rain: 0 %

Min Temprature25o
Max Temprature25o
Humidity94
Wind Speed1 m/h
Sun Rise05:29:51
Sun Set18:37:10
Current Time: 23-Aug-2019 06:10:05
Lat/Lon: 32.1, 74.87




Narowal's Geo Location



Narowal's Weather Forecast

Time Overall Temp Min Temp Max Temp Humidity Wind Speed Rain
23-Aug-2019 (Fri)
08:00:00 clear sky 29.330 29.330 30.407 60 2.19 m/h 0 %
11:00:00 clear sky 35.040 35.040 35.850 39 2.6 m/h 0 %
14:00:00 clear sky 38.090 38.090 38.631 30 2.54 m/h 0 %
17:00:00 clear sky 38.040 38.040 38.311 29 3.6 m/h 0 %
20:00:00 clear sky 31.650 31.650 31.650 47 3.68 m/h 0 %
23:00:00 few clouds 29.942 29.942 29.942 49 2.53 m/h 0 %
24-Aug-2019 (Sat)
02:00:00 few clouds 28.031 28.031 28.031 58 1.89 m/h 0 %
05:00:00 clear sky 27.355 27.355 27.355 58 1.78 m/h 0 %
08:00:00 clear sky 31.527 31.527 31.527 48 2.54 m/h 0 %
11:00:00 clear sky 37.069 37.069 37.069 35 2.82 m/h 0 %
14:00:00 clear sky 40.569 40.569 40.569 25 1.73 m/h 0 %
17:00:00 clear sky 39.823 39.823 39.823 23 2.9 m/h 0 %
20:00:00 clear sky 32.350 32.350 32.350 48 3.8 m/h 0 %
23:00:00 clear sky 29.869 29.869 29.869 55 2.86 m/h 0 %
25-Aug-2019 (Sun)
02:00:00 clear sky 29.131 29.131 29.131 60 3.1 m/h 0 %
05:00:00 clear sky 27.857 27.857 27.857 64 2.66 m/h 0 %
08:00:00 clear sky 30.714 30.714 30.714 58 4.93 m/h 0 %
11:00:00 clear sky 36.316 36.316 36.316 41 3.68 m/h 0 %
14:00:00 clear sky 39.850 39.850 39.850 30 3.38 m/h 0 %
17:00:00 few clouds 38.050 38.050 38.050 35 5.27 m/h 0 %
20:00:00 clear sky 32.081 32.081 32.081 57 4.81 m/h 0 %
23:00:00 clear sky 30.111 30.111 30.111 67 5.66 m/h 0 %
26-Aug-2019 (Mon)
02:00:00 clear sky 27.665 27.665 27.665 73 4.54 m/h 0 %
05:00:00 clear sky 26.150 26.150 26.150 78 3.54 m/h 0 %
08:00:00 scattered clouds 28.967 28.967 28.967 68 4.79 m/h 0 %
11:00:00 few clouds 35.672 35.672 35.672 44 4.68 m/h 0 %
14:00:00 clear sky 38.484 38.484 38.484 35 3.77 m/h 0 %
17:00:00 clear sky 37.320 37.320 37.320 37 4.14 m/h 0 %
20:00:00 clear sky 31.772 31.772 31.772 53 2.96 m/h 0 %
23:00:00 clear sky 29.714 29.714 29.714 61 2.05 m/h 0 %
27-Aug-2019 (Tue)
02:00:00 overcast clouds 28.716 28.716 28.716 67 1.33 m/h 0 %
05:00:00 broken clouds 27.850 27.850 27.850 68 1.94 m/h 0 %
08:00:00 few clouds 31.935 31.935 31.935 55 2.44 m/h 0 %
11:00:00 scattered clouds 37.536 37.536 37.536 38 1.15 m/h 0 %
14:00:00 broken clouds 39.836 39.836 39.836 29 2.16 m/h 0 %
17:00:00 broken clouds 38.065 38.065 38.065 33 4.45 m/h 0 %
20:00:00 scattered clouds 32.250 32.250 32.250 52 3.36 m/h 0 %
23:00:00 scattered clouds 30.950 30.950 30.950 56 2.83 m/h 0 %
28-Aug-2019 (Wed)
02:00:00 broken clouds 30.657 30.657 30.657 60 2.09 m/h 0 %
05:00:00 broken clouds 30.172 30.172 30.172 62 2.29 m/h 0 %

Famous Cities (61)